Time;durP1;ratioP1;P1;durP2;ratioP2;P2;SDS_P1;SDS_P2;PMS_P1;PMS_P2;Temp;Humidity;BMP_temperature;BMP_pressure;BME280_temperature;BME280_humidity;BME280_pressure;Samples;Min_cycle;Max_cycle;Signal;HPM_P1;HPM_P2
2023/07/11 00:01:09;;;;;;;4.17;3.77;;;17.20;99.90;;;;;;4990646;28;21069;-62
2023/07/11 00:03:37;;;;;;;5.87;3.80;;;17.20;99.90;;;;;;4993902;28;20500;-61
2023/07/11 00:06:08;;;;;;;4.10;3.77;;;17.10;99.90;;;;;;4987744;28;20480;-59
2023/07/11 00:08:38;;;;;;;3.40;3.20;;;17.10;99.90;;;;;;4986704;28;20492;-58
2023/07/11 00:11:10;;;;;;;4.27;3.33;;;17.10;99.90;;;;;;4991501;28;20498;-59
2023/07/11 00:13:39;;;;;;;6.40;3.60;;;17.10;99.90;;;;;;4990044;28;20492;-60
2023/07/11 00:16:10;;;;;;;3.63;3.20;;;17.10;99.90;;;;;;4986206;28;20999;-59
2023/07/11 00:18:38;;;;;;;5.87;3.70;;;17.10;99.90;;;;;;4992796;28;21080;-61
2023/07/11 00:21:06;;;;;;;4.83;3.80;;;17.00;99.90;;;;;;4983599;28;20979;-60
2023/07/11 00:23:34;;;;;;;3.80;3.40;;;17.00;99.90;;;;;;4986466;28;20527;-60
2023/07/11 00:26:02;;;;;;;4.80;3.90;;;16.90;99.90;;;;;;4994767;28;21055;-61
2023/07/11 00:28:33;;;;;;;3.70;3.30;;;16.90;99.90;;;;;;4993867;28;20554;-61
2023/07/11 00:31:02;;;;;;;4.37;3.97;;;16.90;99.90;;;;;;4989958;28;21760;-61
2023/07/11 00:33:30;;;;;;;3.70;3.40;;;16.80;99.90;;;;;;4988353;28;20507;-61
2023/07/11 00:35:58;;;;;;;3.47;3.17;;;16.80;99.90;;;;;;4989695;28;20563;-61
2023/07/11 00:38:27;;;;;;;4.67;3.77;;;16.80;99.90;;;;;;4987072;28;20604;-61
2023/07/11 00:40:55;;;;;;;4.27;3.53;;;16.80;99.90;;;;;;4985656;28;20563;-61
2023/07/11 00:43:23;;;;;;;3.47;3.10;;;16.80;99.90;;;;;;4992945;28;21250;-60
2023/07/11 00:46:14;;;;;;;5.10;4.03;;;16.70;99.90;;;;;;4993351;28;20559;-60
2023/07/11 00:48:48;;;;;;;4.80;2.97;;;16.70;99.90;;;;;;4978272;28;20493;-63
2023/07/11 00:51:20;;;;;;;5.40;3.70;;;16.70;99.90;;;;;;4988384;28;20467;-62
2023/07/11 00:53:49;;;;;;;4.20;3.80;;;16.70;99.90;;;;;;4991878;28;20516;-59
2023/07/11 00:56:21;;;;;;;4.67;3.73;;;16.70;99.90;;;;;;4995332;28;20471;-62
2023/07/11 00:58:49;;;;;;;4.50;3.83;;;16.70;99.90;;;;;;4998504;28;20535;-62
2023/07/11 01:01:20;;;;;;;4.80;4.33;;;16.70;99.90;;;;;;4993326;28;20468;-61
2023/07/11 01:03:49;;;;;;;4.27;3.83;;;16.70;99.90;;;;;;4992953;28;20503;-61
2023/07/11 01:06:21;;;;;;;5.33;4.27;;;16.70;99.90;;;;;;4997637;28;20476;-60
2023/07/11 01:08:53;;;;;;;4.80;4.37;;;16.60;99.90;;;;;;4990554;28;20576;-61
2023/07/11 01:11:22;;;;;;;3.90;3.60;;;16.60;99.90;;;;;;4990744;28;20528;-61
2023/07/11 01:13:51;;;;;;;5.73;4.10;;;16.60;99.90;;;;;;4996309;28;20848;-62
2023/07/11 01:16:21;;;;;;;4.33;3.93;;;16.60;99.90;;;;;;4993542;28;20935;-60
2023/07/11 01:18:49;;;;;;;4.40;3.77;;;16.60;99.90;;;;;;4992824;28;20571;-63
2023/07/11 01:21:19;;;;;;;4.80;4.33;;;16.50;99.90;;;;;;4993365;28;20507;-60
2023/07/11 01:23:48;;;;;;;8.00;3.60;;;16.50;99.90;;;;;;4990690;28;20587;-60
2023/07/11 01:26:16;;;;;;;4.23;3.80;;;16.50;99.90;;;;;;4993203;28;20480;-60
2023/07/11 01:28:44;;;;;;;3.67;3.37;;;16.50;99.90;;;;;;4992001;28;20500;-59
2023/07/11 01:31:13;;;;;;;4.80;4.40;;;16.40;99.90;;;;;;4984085;28;21203;-61
2023/07/11 01:33:41;;;;;;;5.00;4.50;;;16.40;99.90;;;;;;4986805;28;20572;-61
2023/07/11 01:36:10;;;;;;;4.07;3.63;;;16.40;99.90;;;;;;4988578;28;20475;-60
2023/07/11 01:38:40;;;;;;;5.07;4.60;;;16.50;99.90;;;;;;4994133;28;20488;-61
2023/07/11 01:41:08;;;;;;;4.90;4.50;;;16.50;99.90;;;;;;4990978;28;20567;-60
2023/07/11 01:43:37;;;;;;;5.30;4.80;;;16.50;99.90;;;;;;4993032;28;20503;-62
2023/07/11 01:46:05;;;;;;;6.50;5.10;;;16.50;99.90;;;;;;4989607;28;20464;-62
2023/07/11 01:48:33;;;;;;;6.13;4.83;;;16.60;99.90;;;;;;4993289;28;21054;-62
2023/07/11 01:51:02;;;;;;;5.87;4.60;;;16.60;99.90;;;;;;4992714;28;20502;-61
2023/07/11 01:53:29;;;;;;;6.30;5.10;;;16.60;99.90;;;;;;4988134;28;20496;-62
2023/07/11 01:56:01;;;;;;;9.10;5.57;;;16.60;99.90;;;;;;4997766;28;20479;-62
2023/07/11 01:58:30;;;;;;;7.57;5.67;;;16.60;99.90;;;;;;4995822;28;21174;-61
2023/07/11 02:00:58;;;;;;;5.00;4.40;;;16.60;99.90;;;;;;4996662;28;20507;-61
2023/07/11 02:03:26;;;;;;;6.30;4.63;;;16.60;99.90;;;;;;4995860;28;20515;-61
2023/07/11 02:05:55;;;;;;;5.33;4.83;;;16.50;99.90;;;;;;4995240;28;20472;-61
2023/07/11 02:08:23;;;;;;;4.63;4.23;;;16.40;99.90;;;;;;4990064;28;20511;-62
2023/07/11 02:10:51;;;;;;;5.47;4.40;;;16.50;99.90;;;;;;4996548;28;20497;-60
2023/07/11 02:13:20;;;;;;;5.10;4.60;;;16.40;99.90;;;;;;4996490;28;20484;-62
2023/07/11 02:15:49;;;;;;;8.07;5.07;;;16.40;99.90;;;;;;4990195;28;20560;-62
2023/07/11 02:18:17;;;;;;;5.97;4.80;;;16.30;99.90;;;;;;4996574;28;20488;-61
2023/07/11 02:20:46;;;;;;;4.87;4.47;;;16.30;99.90;;;;;;4997471;28;21192;-61
2023/07/11 02:23:15;;;;;;;5.10;4.57;;;16.30;99.90;;;;;;4995018;28;20498;-60
2023/07/11 02:25:43;;;;;;;6.47;4.70;;;16.30;99.90;;;;;;4995613;28;20471;-61
2023/07/11 02:28:11;;;;;;;7.17;5.17;;;16.40;99.90;;;;;;4992377;28;20567;-61
2023/07/11 02:30:42;;;;;;;8.90;5.10;;;16.40;99.90;;;;;;4994234;28;20672;-61
2023/07/11 02:33:10;;;;;;;4.90;4.40;;;16.40;99.90;;;;;;4996610;28;20568;-60
2023/07/11 02:35:38;;;;;;;5.40;4.50;;;16.40;99.90;;;;;;4991667;28;20914;-59
2023/07/11 02:38:06;;;;;;;5.37;4.43;;;16.50;99.90;;;;;;4991636;28;20492;-61
2023/07/11 02:40:34;;;;;;;7.50;4.50;;;16.50;99.90;;;;;;4994399;28;20472;-61
2023/07/11 02:43:02;;;;;;;7.03;4.60;;;16.50;99.90;;;;;;4993722;28;20598;-61
2023/07/11 02:45:30;;;;;;;6.37;5.33;;;16.40;99.90;;;;;;4993008;28;20491;-60
2023/07/11 02:47:59;;;;;;;6.63;4.80;;;16.50;99.90;;;;;;4993646;28;20509;-61
2023/07/11 02:50:27;;;;;;;5.80;4.80;;;16.50;99.90;;;;;;4991637;28;20477;-63
2023/07/11 02:52:55;;;;;;;6.30;5.07;;;16.50;99.90;;;;;;4994195;28;20493;-61
2023/07/11 02:55:23;;;;;;;6.20;4.30;;;16.50;99.90;;;;;;4990832;28;20480;-62
2023/07/11 02:57:51;;;;;;;6.03;4.60;;;16.40;99.90;;;;;;4993774;28;20498;-62
2023/07/11 03:00:19;;;;;;;5.90;4.97;;;16.50;99.90;;;;;;4995788;28;20479;-62
2023/07/11 03:02:47;;;;;;;6.60;4.60;;;16.40;99.90;;;;;;4989771;28;20507;-62
2023/07/11 03:05:17;;;;;;;5.37;4.10;;;16.40;99.90;;;;;;4989240;28;20620;-62
2023/07/11 03:07:45;;;;;;;5.80;5.13;;;16.40;99.90;;;;;;4993704;28;20523;-62
2023/07/11 03:10:13;;;;;;;6.00;4.40;;;16.40;99.90;;;;;;4997261;28;20536;-62
2023/07/11 03:12:41;;;;;;;5.30;4.33;;;16.40;99.90;;;;;;4995393;28;20504;-62
2023/07/11 03:15:09;;;;;;;5.33;4.50;;;16.40;99.90;;;;;;4995659;28;20508;-62
2023/07/11 03:17:38;;;;;;;5.70;4.40;;;16.40;99.90;;;;;;4996158;28;20491;-62
2023/07/11 03:20:07;;;;;;;7.30;4.87;;;16.40;99.90;;;;;;4993321;28;20547;-60
2023/07/11 03:22:36;;;;;;;4.60;4.20;;;16.40;99.90;;;;;;4988538;28;20847;-62
2023/07/11 03:25:04;;;;;;;6.10;4.40;;;16.50;99.90;;;;;;4992636;28;20469;-60
2023/07/11 03:27:32;;;;;;;6.73;4.43;;;16.50;99.90;;;;;;4991730;28;20484;-62
2023/07/11 03:30:00;;;;;;;5.57;4.40;;;16.50;99.90;;;;;;4987546;28;20507;-61
2023/07/11 03:32:28;;;;;;;6.53;4.60;;;16.60;99.90;;;;;;4991746;28;20498;-62
2023/07/11 03:34:56;;;;;;;6.37;4.33;;;16.60;99.90;;;;;;4985681;28;20569;-62
2023/07/11 03:37:30;;;;;;;5.20;4.10;;;16.60;99.90;;;;;;4990100;28;20583;-62
2023/07/11 03:40:00;;;;;;;5.20;4.60;;;16.60;99.90;;;;;;4989346;28;20864;-61
2023/07/11 03:42:28;;;;;;;5.67;4.63;;;16.60;99.90;;;;;;4990733;28;20484;-62
2023/07/11 03:44:56;;;;;;;5.23;4.67;;;16.60;99.90;;;;;;4994122;28;20552;-61
2023/07/11 03:47:24;;;;;;;4.70;4.20;;;16.60;99.90;;;;;;4993694;28;20901;-61
2023/07/11 03:49:53;;;;;;;5.83;4.43;;;16.60;99.90;;;;;;4985236;28;20472;-59
2023/07/11 03:52:21;;;;;;;5.10;4.30;;;16.60;99.90;;;;;;4990582;28;20566;-61
2023/07/11 03:54:49;;;;;;;5.10;4.60;;;16.60;99.90;;;;;;4993795;28;20469;-61
2023/07/11 03:57:19;;;;;;;5.90;4.70;;;16.60;99.90;;;;;;4994543;28;20540;-61
2023/07/11 03:59:47;;;;;;;6.97;4.40;;;16.70;99.90;;;;;;4995768;28;20468;-62
2023/07/11 04:02:15;;;;;;;5.50;4.63;;;16.80;99.90;;;;;;4981481;28;20472;-62
2023/07/11 04:04:43;;;;;;;5.83;4.30;;;16.90;99.90;;;;;;4982793;28;20573;-63
2023/07/11 04:07:11;;;;;;;5.97;4.17;;;16.90;99.90;;;;;;4987098;28;20585;-61
2023/07/11 04:09:41;;;;;;;4.77;4.37;;;16.90;99.90;;;;;;4986604;28;21006;-60
2023/07/11 04:12:10;;;;;;;4.73;4.00;;;17.00;99.90;;;;;;4992477;28;21092;-62
2023/07/11 04:14:40;;;;;;;5.20;3.93;;;17.00;99.90;;;;;;4989123;28;20542;-62
2023/07/11 04:17:07;;;;;;;4.77;4.23;;;17.00;99.90;;;;;;4986050;28;21037;-61
2023/07/11 04:19:36;;;;;;;5.80;4.10;;;17.00;99.90;;;;;;4984252;28;20472;-62
2023/07/11 04:22:04;;;;;;;6.50;4.30;;;17.10;99.90;;;;;;4990505;28;20977;-62
2023/07/11 04:24:32;;;;;;;7.90;4.40;;;17.10;99.90;;;;;;4984520;28;20511;-61
2023/07/11 04:27:00;;;;;;;4.83;4.33;;;17.10;99.90;;;;;;4984014;28;20489;-62
2023/07/11 04:29:28;;;;;;;4.97;4.57;;;17.20;99.90;;;;;;4985701;28;20552;-61
2023/07/11 04:31:57;;;;;;;12.00;4.37;;;17.20;99.90;;;;;;4985064;28;20583;-61
2023/07/11 04:34:25;;;;;;;7.30;4.40;;;17.20;99.90;;;;;;4982370;28;20492;-60
2023/07/11 04:36:53;;;;;;;4.57;4.17;;;17.20;99.90;;;;;;4987046;28;20492;-60
2023/07/11 04:39:21;;;;;;;4.93;4.07;;;17.20;99.90;;;;;;4983910;28;21453;-60
2023/07/11 04:41:49;;;;;;;5.30;4.40;;;17.30;99.90;;;;;;4984591;28;20488;-62
2023/07/11 04:44:17;;;;;;;6.53;4.40;;;17.30;99.90;;;;;;4980140;28;23865;-62
2023/07/11 04:46:45;;;;;;;6.60;4.53;;;17.30;99.90;;;;;;4984105;28;20506;-61
2023/07/11 04:49:14;;;;;;;4.63;4.30;;;17.30;99.90;;;;;;4981021;28;20472;-61
2023/07/11 04:51:42;;;;;;;4.43;4.03;;;17.30;99.90;;;;;;4988935;28;20563;-60
2023/07/11 04:54:10;;;;;;;4.93;4.43;;;17.40;99.90;;;;;;4989103;28;20500;-60
2023/07/11 04:56:40;;;;;;;4.93;4.33;;;17.40;99.90;;;;;;4986670;28;21131;-62
2023/07/11 04:59:08;;;;;;;5.60;4.37;;;17.40;99.90;;;;;;4984600;28;20480;-62
2023/07/11 05:01:36;;;;;;;5.20;4.70;;;17.50;99.90;;;;;;4983911;28;20554;-63
2023/07/11 05:04:04;;;;;;;5.23;4.77;;;17.60;99.90;;;;;;4977328;28;20505;-63
2023/07/11 05:06:34;;;;;;;4.37;3.97;;;17.60;99.90;;;;;;4985576;28;20472;-63
2023/07/11 05:09:02;;;;;;;4.90;4.40;;;17.60;99.90;;;;;;4987347;28;20561;-62
2023/07/11 05:11:30;;;;;;;5.20;4.60;;;17.70;99.90;;;;;;4985688;28;20484;-62
2023/07/11 05:13:58;;;;;;;10.00;5.13;;;17.80;99.90;;;;;;4973584;28;21387;-62
2023/07/11 05:16:28;;;;;;;5.70;4.77;;;17.80;99.90;;;;;;4983776;28;20475;-62
2023/07/11 05:18:58;;;;;;;5.50;4.80;;;17.90;99.90;;;;;;4987816;28;20837;-62
2023/07/11 05:21:27;;;;;;;4.80;4.30;;;18.00;99.90;;;;;;4990129;28;20468;-62
2023/07/11 05:23:57;;;;;;;4.70;4.30;;;18.10;99.90;;;;;;4989076;28;20519;-62
2023/07/11 05:26:25;;;;;;;4.47;3.90;;;18.10;99.90;;;;;;4985063;28;21040;-63
2023/07/11 05:28:53;;;;;;;5.03;4.53;;;18.20;99.90;;;;;;4985786;28;21030;-60
2023/07/11 05:31:21;;;;;;;4.40;4.00;;;18.20;99.90;;;;;;4983726;28;20487;-61
2023/07/11 05:33:49;;;;;;;5.10;4.60;;;18.20;99.90;;;;;;4976397;28;20879;-62
2023/07/11 05:36:25;;;;;;;5.67;5.00;;;18.30;99.90;;;;;;4985417;28;20990;-61
2023/07/11 05:38:53;;;;;;;5.53;4.60;;;18.30;99.90;;;;;;4989163;28;20490;-61
2023/07/11 05:41:23;;;;;;;7.23;4.80;;;18.40;99.90;;;;;;4994934;28;21079;-61
2023/07/11 05:43:51;;;;;;;5.70;4.30;;;18.50;99.90;;;;;;4986470;28;20582;-61
2023/07/11 05:46:19;;;;;;;5.10;4.17;;;18.60;99.90;;;;;;4990420;28;21029;-62
2023/07/11 05:48:47;;;;;;;4.77;3.80;;;18.60;99.90;;;;;;4985997;28;20549;-61
2023/07/11 05:51:16;;;;;;;4.97;3.87;;;18.70;99.90;;;;;;4997531;28;20470;-62
2023/07/11 05:53:45;;;;;;;10.00;4.13;;;18.80;99.90;;;;;;4993755;28;20616;-61
2023/07/11 05:56:13;;;;;;;4.50;4.10;;;18.90;99.90;;;;;;4995945;28;20502;-60
2023/07/11 05:58:43;;;;;;;6.00;3.60;;;18.90;99.90;;;;;;4989862;28;21399;-60
2023/07/11 06:01:12;;;;;;;4.43;3.80;;;19.00;99.90;;;;;;4999298;28;20473;-60
2023/07/11 06:03:41;;;;;;;3.90;3.40;;;19.00;99.90;;;;;;4994242;28;20484;-61
2023/07/11 06:06:09;;;;;;;4.60;3.60;;;19.10;99.90;;;;;;4994451;28;20543;-61
2023/07/11 06:08:37;;;;;;;3.93;3.50;;;19.20;99.90;;;;;;4993122;28;20563;-59
2023/07/11 06:11:06;;;;;;;4.50;3.63;;;19.30;99.90;;;;;;4998375;28;20468;-61
2023/07/11 06:13:36;;;;;;;5.60;3.73;;;19.30;99.90;;;;;;4993451;28;20583;-61
2023/07/11 06:16:08;;;;;;;3.43;3.07;;;19.40;99.90;;;;;;4986895;28;20471;-62
2023/07/11 06:18:39;;;;;;;5.13;4.03;;;19.50;99.90;;;;;;4992679;28;20579;-62
2023/07/11 06:21:08;;;;;;;4.10;3.30;;;19.50;99.90;;;;;;4996388;28;20982;-61
2023/07/11 06:23:37;;;;;;;5.10;3.23;;;19.60;99.90;;;;;;5000229;28;20944;-61
2023/07/11 06:26:05;;;;;;;3.20;2.93;;;19.60;99.90;;;;;;5000159;28;20960;-61
2023/07/11 06:28:34;;;;;;;3.87;3.30;;;19.70;99.90;;;;;;4988925;28;20493;-62
2023/07/11 06:31:07;;;;;;;5.07;3.47;;;19.70;99.90;;;;;;4994709;28;20562;-62
2023/07/11 06:33:35;;;;;;;3.60;3.30;;;19.80;99.90;;;;;;5001360;28;20488;-59
2023/07/11 06:36:05;;;;;;;4.20;3.23;;;19.90;99.90;;;;;;4998612;28;21148;-61
2023/07/11 06:38:33;;;;;;;4.23;3.60;;;20.00;99.90;;;;;;4986604;28;20489;-62
2023/07/11 06:41:01;;;;;;;3.43;3.10;;;20.10;99.90;;;;;;4995250;28;20587;-59
2023/07/11 06:43:30;;;;;;;4.60;3.90;;;20.10;99.90;;;;;;4987204;28;20493;-60
2023/07/11 06:46:00;;;;;;;3.40;3.07;;;20.20;99.90;;;;;;4996268;28;20476;-60
2023/07/11 06:48:32;;;;;;;2.83;2.63;;;20.20;99.90;;;;;;4998967;28;21090;-60
2023/07/11 06:51:01;;;;;;;4.63;3.13;;;20.30;99.90;;;;;;4997772;28;20512;-60
2023/07/11 06:53:32;;;;;;;3.90;3.23;;;20.40;99.90;;;;;;5002150;28;20492;-60
2023/07/11 06:56:01;;;;;;;3.00;2.70;;;20.40;99.90;;;;;;4991554;28;20450;-59
2023/07/11 06:58:29;;;;;;;3.10;2.80;;;20.40;99.90;;;;;;4996568;28;20491;-61
2023/07/11 07:01:01;;;;;;;3.13;2.83;;;20.50;99.90;;;;;;4995289;28;20551;-61
2023/07/11 07:03:31;;;;;;;3.70;2.70;;;20.60;99.90;;;;;;4993987;28;20480;-61
2023/07/11 07:06:03;;;;;;;4.73;3.13;;;20.60;99.90;;;;;;4993463;28;20565;-58
2023/07/11 07:08:31;;;;;;;3.20;3.00;;;20.70;99.90;;;;;;4996650;28;21110;-59
2023/07/11 07:10:59;;;;;;;3.43;3.00;;;20.80;99.90;;;;;;4995959;28;20472;-61
2023/07/11 07:13:27;;;;;;;3.33;3.03;;;20.80;99.90;;;;;;4992320;28;20543;-60
2023/07/11 07:15:57;;;;;;;4.40;3.30;;;20.90;99.90;;;;;;4998332;28;20558;-59
2023/07/11 07:18:27;;;;;;;2.90;2.53;;;21.00;99.90;;;;;;4992616;28;20512;-60
2023/07/11 07:20:56;;;;;;;4.60;2.77;;;21.10;99.90;;;;;;4995264;28;20546;-60
2023/07/11 07:23:26;;;;;;;4.00;3.07;;;21.20;99.90;;;;;;4993895;28;20483;-60
2023/07/11 07:25:57;;;;;;;3.20;2.80;;;21.20;99.90;;;;;;4997483;28;20815;-60
2023/07/11 07:28:26;;;;;;;3.97;3.27;;;21.30;99.90;;;;;;4992782;28;21087;-59
2023/07/11 07:30:55;;;;;;;2.67;2.40;;;21.30;99.90;;;;;;4992113;28;20479;-61
2023/07/11 07:33:26;;;;;;;5.60;3.30;;;21.40;99.90;;;;;;4996110;28;20496;-60
2023/07/11 07:35:57;;;;;;;3.30;3.00;;;21.40;99.90;;;;;;4991736;28;20469;-59
2023/07/11 07:38:27;;;;;;;9.47;3.23;;;21.50;99.90;;;;;;4987683;28;20487;-60
2023/07/11 07:40:58;;;;;;;2.80;2.50;;;21.60;99.90;;;;;;4997668;28;20476;-60
2023/07/11 07:43:26;;;;;;;3.07;2.60;;;21.70;99.90;;;;;;4988548;28;21392;-60
2023/07/11 07:45:56;;;;;;;3.33;3.03;;;21.70;99.90;;;;;;4992636;28;20483;-58
2023/07/11 07:48:25;;;;;;;2.97;2.73;;;21.80;99.90;;;;;;4996533;28;21000;-59
2023/07/11 07:50:53;;;;;;;3.53;2.70;;;21.90;99.90;;;;;;4995463;28;20520;-60
2023/07/11 07:53:23;;;;;;;3.27;2.97;;;21.90;99.90;;;;;;4996342;28;20587;-59
2023/07/11 07:55:51;;;;;;;4.60;2.73;;;22.00;99.90;;;;;;4994906;28;20478;-60
2023/07/11 07:58:19;;;;;;;3.80;2.80;;;22.20;99.90;;;;;;4991611;28;21088;-60
2023/07/11 08:01:07;;;;;;;2.87;2.60;;;22.30;99.90;;;;;;4996734;28;20442;-60
2023/07/11 08:03:37;;;;;;;3.13;2.70;;;22.40;99.90;;;;;;4998071;28;20511;-60
2023/07/11 08:06:05;;;;;;;3.90;2.97;;;22.40;99.90;;;;;;4997073;28;20523;-60
2023/07/11 08:08:37;;;;;;;3.10;2.50;;;22.40;99.90;;;;;;4992044;28;20485;-60
2023/07/11 08:11:07;;;;;;;4.10;2.80;;;22.60;99.90;;;;;;4998047;28;20560;-60
2023/07/11 08:13:35;;;;;;;5.50;2.40;;;22.70;99.90;;;;;;4994474;28;20507;-60
2023/07/11 08:16:23;;;;;;;2.90;2.50;;;22.70;99.90;;;;;;4996036;28;21145;-60
2023/07/11 08:18:59;;;;;;;3.27;2.97;;;22.80;99.90;;;;;;4990148;28;20470;-60
2023/07/11 08:21:27;;;;;;;3.23;2.93;;;22.90;99.90;;;;;;4995529;28;20574;-60
2023/07/11 08:23:57;;;;;;;4.07;2.50;;;23.00;99.90;;;;;;4997321;28;20488;-60
2023/07/11 08:26:25;;;;;;;3.00;2.50;;;23.10;99.90;;;;;;4993824;28;20560;-60
2023/07/11 08:28:54;;;;;;;4.33;2.90;;;23.20;99.90;;;;;;4993699;28;20478;-61
2023/07/11 08:31:23;;;;;;;3.80;2.70;;;23.30;99.90;;;;;;4995214;28;20722;-61
2023/07/11 08:33:51;;;;;;;3.97;2.80;;;23.30;99.90;;;;;;4986348;28;21010;-61
2023/07/11 08:36:19;;;;;;;4.07;2.90;;;23.40;99.90;;;;;;4995553;28;20481;-60
2023/07/11 08:38:47;;;;;;;3.27;2.60;;;23.60;99.90;;;;;;4991661;28;20488;-59
2023/07/11 08:41:26;;;;;;;2.93;2.20;;;23.70;99.90;;;;;;4990582;28;20476;-60
2023/07/11 08:43:58;;;;;;;2.80;2.57;;;23.80;99.90;;;;;;4989075;28;20553;-60
2023/07/11 08:46:28;;;;;;;3.50;2.57;;;23.90;99.90;;;;;;4997094;28;20475;-59
2023/07/11 08:49:00;;;;;;;2.73;2.50;;;24.00;99.90;;;;;;4993181;28;20465;-60
2023/07/11 08:51:32;;;;;;;3.00;2.70;;;24.00;99.90;;;;;;4998647;28;20560;-60
2023/07/11 08:54:06;;;;;;;4.20;2.50;;;24.20;99.90;;;;;;4991770;28;20504;-60
2023/07/11 08:56:38;;;;;;;4.10;2.63;;;24.20;99.90;;;;;;4994403;28;24682;-60
2023/07/11 08:59:15;;;;;;;5.67;3.13;;;24.20;99.90;;;;;;4988460;28;20479;-60
2023/07/11 09:01:48;;;;;;;4.93;3.03;;;24.30;99.90;;;;;;4997165;28;20464;-60
2023/07/11 09:04:21;;;;;;;3.20;2.77;;;24.40;99.90;;;;;;4993350;28;20491;-59
2023/07/11 09:06:54;;;;;;;3.13;2.83;;;24.50;99.90;;;;;;4989242;28;20507;-59
2023/07/11 09:09:23;;;;;;;3.43;2.50;;;24.60;99.90;;;;;;4988656;28;20534;-60
2023/07/11 09:12:06;;;;;;;3.83;2.50;;;24.60;99.90;;;;;;4991037;28;20475;-60
2023/07/11 09:14:45;;;;;;;5.03;3.07;;;24.60;99.90;;;;;;4993597;28;21107;-60
2023/07/11 09:17:24;;;;;;;3.27;2.83;;;24.60;99.90;;;;;;4997375;28;20565;-60
2023/07/11 09:20:14;;;;;;;3.47;2.90;;;24.70;99.90;;;;;;4992450;28;20894;-59
2023/07/11 09:22:50;;;;;;;3.10;2.63;;;24.80;99.90;;;;;;4998467;28;20572;-61
2023/07/11 09:25:22;;;;;;;3.43;2.70;;;24.90;99.90;;;;;;4994602;28;20914;-61
2023/07/11 09:28:04;;;;;;;3.20;2.77;;;25.00;99.90;;;;;;4993698;28;20496;-60
2023/07/11 09:30:36;;;;;;;3.00;2.73;;;25.00;99.90;;;;;;4998823;28;21043;-61
2023/07/11 09:33:14;;;;;;;3.90;3.13;;;25.10;99.90;;;;;;4998653;28;20570;-60
2023/07/11 09:35:45;;;;;;;3.30;3.10;;;25.20;99.90;;;;;;5000576;28;20547;-61
2023/07/11 09:38:19;;;;;;;3.10;2.80;;;25.30;99.90;;;;;;4991263;28;20511;-60
2023/07/11 09:40:51;;;;;;;3.13;2.60;;;25.40;99.90;;;;;;4995124;28;20559;-60
2023/07/11 09:43:21;;;;;;;2.90;2.70;;;25.50;99.90;;;;;;4992891;28;20656;-61
2023/07/11 09:45:49;;;;;;;3.70;3.03;;;25.50;99.90;;;;;;4991590;28;20484;-61
2023/07/11 09:48:20;;;;;;;2.90;2.40;;;25.60;99.90;;;;;;4998214;28;20600;-60
2023/07/11 09:51:00;;;;;;;3.67;2.50;;;25.60;99.90;;;;;;4996670;28;20504;-61
2023/07/11 09:53:45;;;;;;;3.10;2.77;;;25.70;99.90;;;;;;5000106;28;20863;-61
2023/07/11 09:56:14;;;;;;;3.10;2.80;;;25.80;99.90;;;;;;4997090;28;22425;-61
2023/07/11 09:58:49;;;;;;;3.87;2.47;;;25.90;99.90;;;;;;4992927;28;20487;-60
2023/07/11 10:01:24;;;;;;;4.30;2.90;;;26.00;99.20;;;;;;4996366;28;20470;-61
2023/07/11 10:03:55;;;;;;;2.30;2.10;;;26.00;99.00;;;;;;4995973;28;20935;-61
2023/07/11 10:06:33;;;;;;;3.50;2.57;;;26.00;96.30;;;;;;4995865;28;20476;-61
2023/07/11 10:09:21;;;;;;;2.70;2.50;;;26.10;96.80;;;;;;4994891;28;20497;-59
2023/07/11 10:11:55;;;;;;;4.43;2.73;;;26.20;94.80;;;;;;4999740;28;20547;-59
2023/07/11 10:14:29;;;;;;;2.60;2.40;;;26.30;92.10;;;;;;4998998;28;20518;-60
2023/07/11 10:16:57;;;;;;;2.27;2.07;;;26.30;89.10;;;;;;4993194;28;20505;-59
2023/07/11 10:19:28;;;;;;;3.50;2.13;;;26.20;90.90;;;;;;4998566;28;20529;-59
2023/07/11 10:22:00;;;;;;;2.33;2.13;;;26.30;88.40;;;;;;5000730;28;20469;-60
2023/07/11 10:24:37;;;;;;;2.90;2.50;;;26.30;91.10;;;;;;4995966;28;20489;-60
2023/07/11 10:27:13;;;;;;;2.30;2.10;;;26.30;91.60;;;;;;4991068;28;20543;-59
2023/07/11 10:29:46;;;;;;;3.37;2.37;;;26.40;87.50;;;;;;4993363;28;20980;-60
2023/07/11 10:32:21;;;;;;;4.37;2.70;;;26.50;84.90;;;;;;4996436;28;20464;-60
2023/07/11 10:34:52;;;;;;;3.13;2.67;;;26.60;87.40;;;;;;4989810;28;20522;-59
2023/07/11 10:37:27;;;;;;;2.27;2.07;;;26.80;85.60;;;;;;4993486;28;20601;-59
2023/07/11 10:40:00;;;;;;;3.50;2.00;;;26.80;80.20;;;;;;4989219;28;20497;-58
2023/07/11 10:42:36;;;;;;;2.53;2.30;;;26.90;85.10;;;;;;4993348;28;20566;-59
2023/07/11 10:45:12;;;;;;;2.67;2.47;;;26.90;89.70;;;;;;4994465;28;20558;-60
2023/07/11 10:47:47;;;;;;;2.70;2.47;;;27.10;88.10;;;;;;4996808;28;20510;-59
2023/07/11 10:50:28;;;;;;;2.47;2.27;;;27.30;86.20;;;;;;4993051;28;20473;-59
2023/07/11 10:53:01;;;;;;;2.60;2.40;;;27.30;76.40;;;;;;4997192;28;20579;-59
2023/07/11 10:55:34;;;;;;;2.70;2.50;;;27.30;83.30;;;;;;4990986;28;20488;-60
2023/07/11 10:58:03;;;;;;;2.70;2.50;;;27.40;78.50;;;;;;4986841;28;21211;-59
2023/07/11 11:00:49;;;;;;;2.63;2.43;;;27.40;74.40;;;;;;4995059;28;20523;-59
2023/07/11 11:03:32;;;;;;;3.00;2.50;;;27.30;76.40;;;;;;4987994;28;20511;-60
2023/07/11 11:06:11;;;;;;;3.00;2.80;;;27.30;77.10;;;;;;4991900;28;20564;-59
2023/07/11 11:08:43;;;;;;;3.70;2.70;;;27.40;77.20;;;;;;4983455;28;20522;-58
2023/07/11 11:11:25;;;;;;;3.57;2.70;;;27.50;74.40;;;;;;4988904;28;20480;-58
2023/07/11 11:14:03;;;;;;;3.00;2.80;;;27.50;73.30;;;;;;4995509;28;20542;-59
2023/07/11 11:16:37;;;;;;;2.93;2.63;;;27.60;74.80;;;;;;4987722;28;20507;-58
2023/07/11 11:19:26;;;;;;;2.60;2.50;;;27.70;77.40;;;;;;4994803;28;20559;-59
2023/07/11 11:22:00;;;;;;;3.50;2.83;;;27.70;78.20;;;;;;4985141;28;20499;-59
2023/07/11 11:24:38;;;;;;;3.20;2.93;;;27.70;81.70;;;;;;4985604;28;20558;-60
2023/07/11 11:27:17;;;;;;;3.30;3.00;;;27.90;81.00;;;;;;4995820;28;20484;-60
2023/07/11 11:29:54;;;;;;;2.87;2.60;;;28.00;81.50;;;;;;4995567;28;20501;-60
2023/07/11 11:32:30;;;;;;;4.50;3.10;;;28.10;78.20;;;;;;4996201;28;20464;-59
2023/07/11 11:35:20;;;;;;;2.63;2.43;;;28.10;79.00;;;;;;4991986;28;20475;-59
2023/07/11 11:38:04;;;;;;;3.00;2.67;;;28.10;82.00;;;;;;4989631;28;20496;-59
2023/07/11 11:40:38;;;;;;;3.57;3.23;;;28.10;78.00;;;;;;4992587;28;20484;-60
2023/07/11 11:43:10;;;;;;;3.07;2.87;;;28.10;78.20;;;;;;4983742;28;20516;-60
2023/07/11 11:45:43;;;;;;;3.60;3.20;;;28.20;78.70;;;;;;4992958;28;20468;-60
2023/07/11 11:48:34;;;;;;;3.60;3.30;;;28.30;80.20;;;;;;4985835;28;20481;-58
2023/07/11 11:51:09;;;;;;;3.23;2.93;;;28.40;77.80;;;;;;4993430;28;20552;-60
2023/07/11 11:53:45;;;;;;;3.20;3.00;;;28.50;78.90;;;;;;4991072;28;20488;-59
2023/07/11 11:56:15;;;;;;;2.90;2.70;;;28.50;80.10;;;;;;4985186;28;20626;-60
2023/07/11 11:58:58;;;;;;;3.53;3.20;;;28.50;79.10;;;;;;4992896;28;20512;-60
2023/07/11 12:01:41;;;;;;;3.97;3.67;;;28.60;76.20;;;;;;4992631;28;20563;-59
2023/07/11 12:04:53;;;;;;;4.50;3.90;;;28.70;78.00;;;;;;4993533;28;20545;-59
2023/07/11 12:07:26;;;;;;;3.23;3.00;;;28.90;76.90;;;;;;4992334;28;20488;-61
2023/07/11 12:10:12;;;;;;;3.70;3.30;;;29.10;76.70;;;;;;4992656;28;20485;-60
2023/07/11 12:13:19;;;;;;;3.90;3.60;;;29.20;74.50;;;;;;4993188;28;20488;-60
2023/07/11 12:15:50;;;;;;;4.37;3.97;;;29.20;74.20;;;;;;4992667;28;20598;-61
2023/07/11 12:18:39;;;;;;;3.57;3.30;;;29.20;72.00;;;;;;4987407;28;20524;-61
2023/07/11 12:21:30;;;;;;;3.93;3.63;;;29.10;73.90;;;;;;4995863;28;20552;-61
2023/07/11 12:24:22;;;;;;;4.20;3.80;;;29.20;75.00;;;;;;4989486;28;20544;-60
2023/07/11 12:26:54;;;;;;;4.33;3.43;;;29.30;70.80;;;;;;4992657;28;20489;-62
2023/07/11 12:29:41;;;;;;;3.63;3.27;;;29.40;72.40;;;;;;4982375;28;20475;-61
2023/07/11 12:32:41;;;;;;;3.73;3.43;;;29.50;71.90;;;;;;4989990;28;20484;-61
2023/07/11 12:35:16;;;;;;;3.90;3.60;;;29.70;65.90;;;;;;4979010;28;20618;-61
2023/07/11 12:37:55;;;;;;;3.63;3.30;;;29.70;65.00;;;;;;4990407;28;20573;-60
2023/07/11 12:40:32;;;;;;;3.93;3.50;;;29.80;65.30;;;;;;4986175;28;21444;-61
2023/07/11 12:43:02;;;;;;;4.20;3.80;;;30.00;67.60;;;;;;4983812;28;20503;-61
2023/07/11 12:45:37;;;;;;;7.30;3.70;;;30.20;63.40;;;;;;4994384;28;20472;-61
2023/07/11 12:48:11;;;;;;;5.30;3.97;;;30.30;63.30;;;;;;4990933;28;20484;-60
2023/07/11 12:50:45;;;;;;;3.77;3.47;;;30.40;65.60;;;;;;4994333;28;20468;-61
2023/07/11 12:53:15;;;;;;;4.00;3.70;;;30.50;66.50;;;;;;4993182;28;20584;-62
2023/07/11 12:55:44;;;;;;;3.60;3.30;;;30.60;61.50;;;;;;4991752;28;20526;-61
2023/07/11 12:58:18;;;;;;;4.03;3.63;;;30.50;58.60;;;;;;4997223;28;20477;-61
2023/07/11 13:00:47;;;;;;;3.60;3.30;;;30.40;58.30;;;;;;4994344;28;20485;-61
2023/07/11 13:03:23;;;;;;;4.40;4.00;;;30.50;59.60;;;;;;4994321;28;21028;-61
2023/07/11 13:05:54;;;;;;;3.40;3.10;;;30.70;60.70;;;;;;4991179;28;20468;-61
2023/07/11 13:08:44;;;;;;;3.73;3.43;;;30.80;57.20;;;;;;4992841;28;21283;-61